createdAt,value
2023-02-02T00:00:33.169Z,10.60
2023-02-02T00:15:43.015Z,8.73
2023-02-02T00:30:45.799Z,7.85
2023-02-02T00:45:50.009Z,10.55
2023-02-02T01:00:52.602Z,10.02
2023-02-02T01:15:58.756Z,11.85
2023-02-02T01:31:07.475Z,11.38
2023-02-02T01:46:14.221Z,12.82
2023-02-02T02:01:16.675Z,8.65
2023-02-02T02:16:30.667Z,9.80
2023-02-02T02:31:51.624Z,11.57
2023-02-02T02:46:54.385Z,8.07
2023-02-02T03:02:34.449Z,10.07
2023-02-02T03:17:36.409Z,9.35
2023-02-02T03:32:38.982Z,11.75
2023-02-02T03:47:40.975Z,6.10
2023-02-02T04:02:43.000Z,10.93
2023-02-02T04:17:44.958Z,11.40
2023-02-02T04:32:47.022Z,9.10
2023-02-02T04:47:48.950Z,8.68
2023-02-02T05:02:50.908Z,8.13
2023-02-02T05:17:52.989Z,9.75
2023-02-02T05:32:54.913Z,10.02
2023-02-02T05:47:56.930Z,7.90
2023-02-02T06:02:59.187Z,16.13
2023-02-02T06:18:01.446Z,9.85
2023-02-02T06:33:03.485Z,7.13
2023-02-02T06:48:11.156Z,12.02
2023-02-02T07:03:13.093Z,9.27
2023-02-02T07:18:15.116Z,7.30
2023-02-02T07:33:17.223Z,10.02
2023-02-02T07:48:19.250Z,7.20
2023-02-02T08:03:21.362Z,10.15
2023-02-02T08:18:23.343Z,5.68
2023-02-02T08:33:25.828Z,6.15
2023-02-02T08:48:27.897Z,2.58
2023-02-02T09:03:30.012Z,5.60
2023-02-02T09:18:32.210Z,5.75
2023-02-02T09:33:34.250Z,7.65
2023-02-02T09:48:58.480Z,5.93
2023-02-02T10:04:25.762Z,3.55
2023-02-02T10:19:30.821Z,4.77
2023-02-02T10:34:45.576Z,6.72
2023-02-02T10:49:56.304Z,3.65
2023-02-02T11:05:17.115Z,3.70
2023-02-02T11:20:25.832Z,4.07
2023-02-02T11:35:32.091Z,5.28
2023-02-02T11:50:35.361Z,5.00
2023-02-02T12:05:37.812Z,7.97
2023-02-02T12:21:18.207Z,8.77
2023-02-02T12:36:57.706Z,8.43
2023-02-02T12:52:06.133Z,9.82
2023-02-02T13:22:20.105Z,7.43
2023-02-02T13:37:49.315Z,12.13
2023-02-02T13:53:00.146Z,10.52
2023-02-02T14:08:08.571Z,9.38
2023-02-02T14:38:56.694Z,8.95
2023-02-02T14:54:02.009Z,7.87
2023-02-02T15:09:28.468Z,9.98
2023-02-02T15:24:32.322Z,9.57
2023-02-02T15:39:41.343Z,5.40
2023-02-02T15:54:52.728Z,5.97
2023-02-02T16:09:54.822Z,10.85
2023-02-02T16:24:59.509Z,5.75
2023-02-02T16:40:25.972Z,6.78
2023-02-02T16:55:43.684Z,5.88
2023-02-02T17:11:37.892Z,7.63
2023-02-02T17:26:39.931Z,5.50
2023-02-02T17:41:42.571Z,5.93
2023-02-02T17:56:44.665Z,5.60
2023-02-02T18:11:49.175Z,5.10
2023-02-02T18:26:51.231Z,6.32
2023-02-02T18:41:53.346Z,5.88
2023-02-02T18:56:55.383Z,5.03
2023-02-02T19:11:58.203Z,6.40
2023-02-02T19:27:00.283Z,7.70
2023-02-02T19:42:02.301Z,5.07
2023-02-02T19:57:13.464Z,5.20
2023-02-02T20:12:28.406Z,12.82
2023-02-02T20:27:34.152Z,27.35
2023-02-02T20:42:36.110Z,21.58
2023-02-02T20:57:41.058Z,20.13
2023-02-02T21:12:43.108Z,8.65
2023-02-02T21:27:45.150Z,25.35
2023-02-02T21:42:50.317Z,23.58
2023-02-02T21:57:52.296Z,22.20
2023-02-02T22:12:54.350Z,14.10
2023-02-02T22:27:58.627Z,13.70
2023-02-02T22:43:03.569Z,15.90
2023-02-02T22:58:05.541Z,15.25
2023-02-02T23:13:07.782Z,13.15
2023-02-02T23:28:10.820Z,17.17
2023-02-02T23:43:12.789Z,14.05
2023-02-02T23:58:15.162Z,13.70
